KCBM

Columbus Air Force Base

Airport
ICAO code
KCBM
IATA Code
CBM
Summary
ICAO Region
NAM
ICAO Territory
Location

Columbus, Mississippi

Serving
Columbus
Elevation
218 ft
Coordinates
33° 38' 38" N , 88° 26' 38" W
KCC
Airport LOS
Parallel Runway Operation
Metar
KCBM 221755Z 19009KT 10SM BKN055 19/11 A2986 RMK AO2A SLP113 T01890110 10189 20102 57027 $

Description

Columbus Air Force Base is a United States Air Force training installation located approximately 8 nm north of the central business district of Columbus, Mississippi, USA.

Airport map

Aerial View

SKYbrary Partners:

Safety knowledge contributed by: